Detalii statie GENERAL AGRO [00001CEA]

Toti senzorii

Date Temperatura solului [C]Precipitatii [mm]Voltaj baterie [mV]HC Air temperature [C]HC Relative humidity [%]Punctul de roua [C]
medieminmaxsumaultimamedieminmaxmediemediemin
2020-06-02 07:00:00 13.9 13.9 13.9 0 6748 11.49 11.44 11.54 0 0 0
2020-06-02 07:30:00 13.9 13.8 14 0 6738 11.37 11.31 11.45 0 0 0
2020-06-02 08:00:00 13.9 13.8 14 0.4 6756 10.54 10.3 11.01 0 0 0
2020-06-02 08:30:00 13.9 13.8 14 0.4 6748 10.29 10.2 10.39 0 0 0
2020-06-02 09:00:00 13.8 13.8 13.9 0.2 6748 10.57 10.46 10.64 0 0 0
2020-06-02 09:30:00 13.8 13.8 13.8 0.4 6738 10.74 10.7 10.8 0 0 0
2020-06-02 10:00:00 13.8 13.8 13.9 0.4 6766 10.67 10.47 10.81 0 0 0
2020-06-02 10:30:00 13.8 13.8 14 0 6776 10.89 10.7 11.16 0 0 0
2020-06-02 11:00:00 13.9 13.9 14 0.2 6816 11.42 11.22 11.71 0 0 0
2020-06-02 11:30:00 13.9 13.9 14 0 6816 12.01 11.78 12.35 0 0 0
2020-06-02 12:00:00 14 14 14.2 0 6874 13.35 13.07 13.64 0 0 0
2020-06-02 12:30:00 14.3 14.2 14.4 0 6864 13.35 13.27 13.45 0 0 0
2020-06-02 13:00:00 14.5 14.4 14.7 0 6874 13.42 13.33 13.5 0 0 0
2020-06-02 13:30:00 14.7 14.5 14.8 0 6864 13.64 13.49 13.76 0 0 0
2020-06-02 14:00:00 14.8 14.8 14.9 0 6884 13.55 13.41 13.73 0 0 0
2020-06-02 14:30:00 14.9 14.9 15.1 0 6982 14.44 13.75 15.13 0 0 0
2020-06-02 15:00:00 15.1 15 15.3 0 7060 14.98 14.79 15.17 0 0 0
2020-06-02 15:30:00 15.4 15.4 15.6 0 7030 15.79 15.07 16.54 0 0 0
2020-06-02 16:00:00 15.8 15.8 15.9 0 7040 15.35 15.15 15.58 0 0 0
2020-06-02 16:30:00 16 15.8 16.1 0 6982 15.16 15.02 15.37 0 0 0
2020-06-02 17:00:00 16.1 16 16.2 0 7010 15.53 15.23 15.77 0 0 0
2020-06-02 17:30:00 16.1 16.1 16.3 0 6962 16.69 16.43 17.14 0 0 0
2020-06-02 18:00:00 16.4 16.4 16.6 0 6942 16.77 16.49 17.02 0 0 0
2020-06-02 18:30:00 16.6 16.5 16.7 0 6894 16.44 16.21 16.67 0 0 0
2020-06-02 19:00:00 16.6 16.6 16.7 0 6874 15.74 15.53 15.85 0 0 0
2020-06-02 19:30:00 16.5 16.5 16.6 0 6834 15.44 15.19 15.69 0 0 0
2020-06-02 20:00:00 16.3 16.3 16.4 0 6826 15 14.88 15.09 0 0 0
2020-06-02 20:30:00 16.2 16.1 16.3 0 6776 14.64 14.25 15.02 0 0 0
2020-06-02 21:00:00 16 16 16.1 0 6786 13.34 12.88 14.01 0 0 0
2020-06-02 21:30:00 15.8 15.8 16 0 6756 12.38 12.14 12.76 0 0 0
2020-06-02 22:00:00 15.6 15.5 15.7 0 6756 11.61 11.05 12.02 0 0 0
2020-06-02 22:30:00 15.4 15.2 15.5 0 6738 10.5 10.03 11.05 0 0 0
2020-06-02 23:00:00 15.2 15.2 15.3 0 6756 9.93 9.76 10.24 0 0 0
2020-06-02 23:30:00 15 15 15.2 0 6728 9.7 9.59 9.78 0 0 0
2020-06-03 00:00:00 14.8 14.8 15 0 6748 9.43 8.89 9.82 0 0 0
2020-06-03 00:30:00 14.6 14.6 14.7 0 6728 8.38 8.02 8.83 0 0 0
2020-06-03 01:00:00 14.5 14.3 14.6 0 6738 8.48 7.96 8.88 0 0 0
2020-06-03 01:30:00 14.2 14.2 14.3 0 6718 8.65 8.43 8.9 0 0 0
2020-06-03 02:00:00 14.1 14.1 14.3 0 6738 7.43 6.41 8.32 0 0 0
2020-06-03 02:30:00 13.9 13.9 14.1 0 6718 6.85 6.42 7.47 0 0 0
2020-06-03 03:00:00 13.8 13.8 13.9 0 6738 7.26 6.68 7.57 0 0 0
2020-06-03 03:30:00 13.6 13.3 13.8 0 6708 6.42 5.91 7.02 0 0 0
2020-06-03 04:00:00 13.5 13.3 13.6 0 6718 6.88 6.32 7.17 0 0 0
2020-06-03 04:30:00 13.3 13.3 13.5 0 6708 6.43 6.1 6.79 0 0 0
2020-06-03 05:00:00 13.2 13.1 13.4 0 6718 6.41 6.08 6.81 0 0 0
2020-06-03 05:30:00 13.2 13.1 13.3 0 6718 6.1 6 6.25 0 0 0
2020-06-03 06:00:00 13.1 13.1 13.3 0 6728 6.38 5.96 7.2 0 0 0
2020-06-03 06:30:00 12.9 12.7 13 0.2 6718 8.49 7.76 8.93 0 0 0